Time;durP1;ratioP1;P1;durP2;ratioP2;P2;SDS_P1;SDS_P2;PMS_P1;PMS_P2;Temp;Humidity;BMP_temperature;BMP_pressure;BME280_temperature;BME280_humidity;BME280_pressure;Samples;Min_cycle;Max_cycle;Signal;HPM_P1;HPM_P2
2022/07/22 00:01:37;;;;;;;23.23;15.00;;;19.20;92.90;;;;;;5094817;28;20940;-65
2022/07/22 00:04:05;;;;;;;15.23;13.63;;;19.20;92.90;;;;;;5095023;28;20491;-66
2022/07/22 00:06:32;;;;;;;14.60;12.80;;;19.20;93.00;;;;;;5094556;28;20459;-66
2022/07/22 00:08:59;;;;;;;13.57;11.70;;;19.10;92.90;;;;;;5094948;28;20531;-66
2022/07/22 00:11:27;;;;;;;14.60;13.10;;;19.00;93.10;;;;;;5094460;28;20959;-66
2022/07/22 00:13:55;;;;;;;15.17;13.30;;;18.90;93.40;;;;;;5094889;28;20806;-66
2022/07/22 00:16:22;;;;;;;15.93;13.00;;;18.90;93.60;;;;;;5094434;28;20434;-66
2022/07/22 00:18:50;;;;;;;15.97;12.97;;;18.90;93.70;;;;;;5094511;28;20484;-66
2022/07/22 00:21:17;;;;;;;15.07;13.57;;;19.00;93.90;;;;;;5094112;28;20518;-66
2022/07/22 00:23:46;;;;;;;17.50;14.77;;;19.00;94.00;;;;;;5094318;28;20504;-66
2022/07/22 00:26:14;;;;;;;15.03;13.00;;;19.00;94.10;;;;;;5094500;28;20450;-68
2022/07/22 00:28:41;;;;;;;14.93;13.43;;;19.00;94.20;;;;;;5094325;28;20443;-66
2022/07/22 00:31:09;;;;;;;14.90;13.13;;;18.90;94.00;;;;;;5094587;28;20464;-66
2022/07/22 00:33:37;;;;;;;15.20;12.83;;;18.80;94.00;;;;;;5094124;28;20637;-66
2022/07/22 00:36:06;;;;;;;15.43;13.43;;;18.80;94.20;;;;;;5094502;28;20447;-66
2022/07/22 00:38:33;;;;;;;14.80;12.80;;;18.80;94.30;;;;;;5094050;28;20538;-66
2022/07/22 00:41:00;;;;;;;14.10;11.87;;;18.90;94.30;;;;;;5093741;28;20470;-66
2022/07/22 00:43:28;;;;;;;15.47;12.40;;;18.90;94.20;;;;;;5093705;28;20442;-66
2022/07/22 00:45:55;;;;;;;21.00;12.53;;;18.90;93.90;;;;;;5094186;28;20436;-66
2022/07/22 00:48:25;;;;;;;15.47;13.00;;;18.70;93.80;;;;;;5093784;28;20531;-66
2022/07/22 00:50:53;;;;;;;15.10;12.90;;;18.50;94.20;;;;;;5093911;28;20442;-67
2022/07/22 00:53:20;;;;;;;16.30;13.03;;;18.40;94.50;;;;;;5094182;28;20471;-66
2022/07/22 00:55:47;;;;;;;15.03;12.70;;;18.30;94.70;;;;;;5093983;28;20507;-66
2022/07/22 00:58:15;;;;;;;15.47;12.17;;;18.30;94.50;;;;;;5093285;28;20439;-66
2022/07/22 01:00:42;;;;;;;13.93;12.27;;;18.30;94.20;;;;;;5094058;28;20479;-67
2022/07/22 01:03:09;;;;;;;13.90;12.50;;;18.30;94.00;;;;;;5093243;28;20431;-68
2022/07/22 01:05:38;;;;;;;14.83;12.60;;;18.20;94.30;;;;;;5093156;28;20466;-65
2022/07/22 01:08:14;;;;;;;17.80;12.87;;;18.10;94.60;;;;;;5091941;28;20447;-67
2022/07/22 01:44:56;;;;;;;13.97;12.20;;;18.20;95.60;;;;;;5093061;28;20436;-66
2022/07/22 01:47:23;;;;;;;12.00;10.70;;;18.10;95.30;;;;;;5091955;28;20839;-66
2022/07/22 01:49:50;;;;;;;10.13;9.23;;;18.10;95.30;;;;;;5092704;28;20446;-66
2022/07/22 01:52:18;;;;;;;11.63;10.30;;;18.10;95.20;;;;;;5093152;28;20766;-66
2022/07/22 01:54:45;;;;;;;13.90;11.50;;;18.10;94.80;;;;;;5091321;28;20995;-67
2022/07/22 01:57:12;;;;;;;13.60;11.23;;;18.00;95.00;;;;;;5091397;28;20801;-66
2022/07/22 01:59:41;;;;;;;13.17;11.03;;;17.90;95.60;;;;;;5091132;28;20950;-67
2022/07/22 02:02:17;;;;;;;12.73;11.30;;;17.90;95.40;;;;;;5091887;28;20521;-67
2022/07/22 02:23:06;;;;;;;13.30;11.60;;;17.70;97.80;;;;;;5073579;28;20481;-67
2022/07/22 02:25:45;;;;;;;13.07;10.87;;;17.60;98.00;;;;;;5089477;28;20492;-66
2022/07/22 02:28:13;;;;;;;13.60;11.30;;;17.60;98.10;;;;;;5091294;28;20446;-66
2022/07/22 02:30:40;;;;;;;14.10;12.70;;;17.70;98.20;;;;;;5091313;28;20443;-66
2022/07/22 02:33:08;;;;;;;13.00;11.53;;;17.70;98.00;;;;;;5091625;28;20467;-66
2022/07/22 02:35:37;;;;;;;14.87;11.90;;;17.60;98.30;;;;;;5091893;28;20479;-66
2022/07/22 02:38:05;;;;;;;12.83;11.53;;;17.50;98.40;;;;;;5091484;28;20466;-65
2022/07/22 02:40:33;;;;;;;15.47;12.03;;;17.50;98.50;;;;;;5090451;28;20505;-66
2022/07/22 02:43:01;;;;;;;13.37;11.43;;;17.50;98.50;;;;;;5091655;28;20446;-66
2022/07/22 02:45:29;;;;;;;15.93;13.27;;;17.60;98.50;;;;;;5093044;28;20946;-66
2022/07/22 02:47:57;;;;;;;14.70;11.57;;;17.70;98.40;;;;;;5096105;28;20500;-66
2022/07/22 02:50:25;;;;;;;14.03;11.20;;;17.70;98.30;;;;;;5096018;28;20452;-66
2022/07/22 02:52:53;;;;;;;13.50;11.10;;;17.60;97.80;;;;;;5095854;28;20846;-66
2022/07/22 02:55:22;;;;;;;13.97;12.10;;;17.60;97.80;;;;;;5095048;28;20439;-66
2022/07/22 03:01:30;;;;;;;12.20;10.90;;;17.60;97.50;;;;;;5095718;28;20521;-66
2022/07/22 03:03:57;;;;;;;13.93;12.50;;;17.60;97.50;;;;;;5095535;28;20485;-68
2022/07/22 03:06:24;;;;;;;12.60;11.30;;;17.60;97.40;;;;;;5095537;28;20439;-66
2022/07/22 03:09:04;;;;;;;16.00;11.07;;;17.60;97.40;;;;;;5094996;28;20443;-66
2022/07/22 03:11:32;;;;;;;12.40;9.80;;;17.60;97.20;;;;;;5094998;28;20431;-65
2022/07/22 03:14:00;;;;;;;13.00;11.60;;;17.50;97.00;;;;;;5093820;28;20434;-66
2022/07/22 03:16:27;;;;;;;15.37;11.77;;;17.40;96.50;;;;;;5095290;28;20438;-67
2022/07/22 03:18:54;;;;;;;14.20;12.07;;;17.30;96.00;;;;;;5095548;28;20925;-67
2022/07/22 03:21:21;;;;;;;11.90;10.67;;;17.30;96.20;;;;;;5095841;28;20501;-67
2022/07/22 03:23:53;;;;;;;12.90;11.53;;;17.30;96.40;;;;;;5094556;28;20491;-69
2022/07/22 03:26:20;;;;;;;15.03;10.70;;;17.30;96.50;;;;;;5095605;28;20439;-67
2022/07/22 03:28:49;;;;;;;10.57;9.47;;;17.30;96.30;;;;;;5095403;28;20513;-67
2022/07/22 03:31:19;;;;;;;11.40;10.20;;;17.20;96.20;;;;;;5090905;28;20438;-71
2022/07/22 03:33:47;;;;;;;12.40;10.27;;;17.10;96.60;;;;;;5088404;28;20461;-71
2022/07/22 03:36:25;;;;;;;12.03;9.87;;;17.00;96.90;;;;;;5093233;28;20463;-70
2022/07/22 03:38:52;;;;;;;11.60;10.40;;;17.00;96.80;;;;;;5093592;28;20446;-67
2022/07/22 03:41:19;;;;;;;11.87;10.67;;;17.00;96.70;;;;;;5093823;28;20482;-70
2022/07/22 03:43:46;;;;;;;10.83;9.73;;;17.00;96.80;;;;;;5093961;28;20435;-67
2022/07/22 03:46:15;;;;;;;12.37;10.97;;;17.10;96.90;;;;;;5094817;28;20445;-68
2022/07/22 03:48:47;;;;;;;11.40;10.23;;;17.10;97.10;;;;;;5095260;28;20446;-68
2022/07/22 03:51:14;;;;;;;12.60;10.50;;;17.10;97.30;;;;;;5094252;28;20439;-70
2022/07/22 03:53:41;;;;;;;12.77;11.30;;;17.10;97.50;;;;;;5095017;28;20515;-68
2022/07/22 03:56:09;;;;;;;13.40;10.70;;;17.20;97.10;;;;;;5093914;28;20489;-68
2022/07/22 03:58:36;;;;;;;14.70;11.40;;;17.20;97.00;;;;;;5092695;28;20442;-68
2022/07/22 04:01:03;;;;;;;12.50;11.17;;;17.20;97.10;;;;;;5095167;28;20984;-68
2022/07/22 04:03:32;;;;;;;13.33;10.20;;;17.10;97.40;;;;;;5085977;28;20439;-68
2022/07/22 04:06:00;;;;;;;13.97;11.33;;;17.10;97.30;;;;;;5092933;28;20454;-68
2022/07/22 04:08:36;;;;;;;12.67;11.37;;;17.10;97.40;;;;;;5093527;28;20443;-71
2022/07/22 04:11:03;;;;;;;14.43;11.90;;;17.00;97.70;;;;;;5093747;28;20504;-67
2022/07/22 04:13:30;;;;;;;15.90;11.50;;;17.00;97.80;;;;;;5092942;28;20845;-67
2022/07/22 04:15:58;;;;;;;16.27;11.57;;;17.00;98.00;;;;;;5093818;28;20446;-67
2022/07/22 04:18:27;;;;;;;12.63;11.33;;;17.00;98.30;;;;;;5093580;28;20824;-68
2022/07/22 04:20:56;;;;;;;13.40;11.60;;;17.10;98.50;;;;;;5093672;28;20523;-68
2022/07/22 04:23:23;;;;;;;11.90;10.60;;;17.10;98.50;;;;;;5092899;28;20473;-68
2022/07/22 04:25:50;;;;;;;16.40;12.63;;;17.10;98.20;;;;;;5094106;28;20820;-71
2022/07/22 04:28:17;;;;;;;13.00;11.67;;;17.10;98.40;;;;;;5094232;28;20439;-67
2022/07/22 04:30:47;;;;;;;14.40;11.87;;;17.20;98.30;;;;;;5074260;28;20846;-67
2022/07/22 04:33:14;;;;;;;12.07;10.80;;;17.20;98.70;;;;;;5074448;28;20927;-68
2022/07/22 04:35:44;;;;;;;13.50;11.83;;;17.20;98.70;;;;;;5086198;28;20439;-68
2022/07/22 04:38:13;;;;;;;12.33;11.03;;;17.30;98.40;;;;;;5093872;28;20481;-68
2022/07/22 04:40:40;;;;;;;14.60;13.00;;;17.30;98.00;;;;;;5092933;28;20492;-68
2022/07/22 04:43:09;;;;;;;15.83;13.50;;;17.30;98.30;;;;;;5092970;28;20537;-68
2022/07/22 04:45:36;;;;;;;14.87;13.17;;;17.40;98.40;;;;;;5093027;28;20443;-68
2022/07/22 04:48:04;;;;;;;16.60;12.23;;;17.50;98.40;;;;;;5093387;28;20455;-68
2022/07/22 04:50:31;;;;;;;14.10;12.70;;;17.50;98.60;;;;;;5092888;28;20484;-70
2022/07/22 04:52:59;;;;;;;14.77;13.27;;;17.50;98.70;;;;;;5093610;28;20431;-68
2022/07/22 04:55:27;;;;;;;14.10;12.73;;;17.50;99.10;;;;;;5093919;28;20957;-67
2022/07/22 04:57:56;;;;;;;15.40;13.40;;;17.60;99.00;;;;;;5094040;28;20473;-68
2022/07/22 05:00:24;;;;;;;16.30;13.43;;;17.70;99.10;;;;;;5093709;28;20443;-67
2022/07/22 05:02:51;;;;;;;16.17;13.83;;;17.70;99.20;;;;;;5093960;28;20445;-74
2022/07/22 05:05:18;;;;;;;13.47;11.87;;;17.80;99.20;;;;;;5086640;28;20496;-75
2022/07/22 05:07:48;;;;;;;15.87;13.20;;;17.90;99.40;;;;;;5089399;28;20434;-70
2022/07/22 05:10:20;;;;;;;17.60;12.80;;;18.10;99.40;;;;;;5087613;28;20530;-68
2022/07/22 05:12:55;;;;;;;12.40;11.20;;;18.20;99.30;;;;;;5090134;28;20458;-68
2022/07/22 05:15:22;;;;;;;15.17;12.77;;;18.30;99.20;;;;;;5090679;28;20921;-68
2022/07/22 05:17:49;;;;;;;13.87;12.50;;;18.40;98.80;;;;;;5090163;28;20846;-70
2022/07/22 05:20:18;;;;;;;16.47;12.97;;;18.40;98.90;;;;;;5090428;28;20431;-68
2022/07/22 05:22:46;;;;;;;15.40;13.80;;;18.50;98.80;;;;;;5090247;28;20560;-68
2022/07/22 05:25:13;;;;;;;15.77;11.90;;;18.60;98.80;;;;;;5090553;28;20431;-68
2022/07/22 05:27:51;;;;;;;16.30;14.70;;;18.70;99.00;;;;;;5090626;28;20437;-69
2022/07/22 05:30:19;;;;;;;15.63;14.07;;;18.80;98.80;;;;;;5091314;28;20504;-68
2022/07/22 05:32:47;;;;;;;19.83;12.83;;;18.90;98.80;;;;;;5092221;28;20431;-68
2022/07/22 05:35:15;;;;;;;14.90;12.83;;;19.00;98.90;;;;;;5090443;28;20561;-68
2022/07/22 05:37:42;;;;;;;14.07;12.67;;;19.10;98.80;;;;;;5086458;28;20797;-78
2022/07/22 05:40:10;;;;;;;16.33;14.73;;;19.20;98.60;;;;;;5084143;28;20439;-68
2022/07/22 05:42:39;;;;;;;17.03;13.20;;;19.30;97.90;;;;;;5089370;28;20518;-69
2022/07/22 05:45:07;;;;;;;18.90;13.77;;;19.30;97.80;;;;;;5085941;28;20496;-68
2022/07/22 05:47:36;;;;;;;16.37;14.67;;;19.40;97.60;;;;;;5091483;28;20795;-69
2022/07/22 05:50:04;;;;;;;17.87;13.77;;;19.50;97.30;;;;;;5091094;28;20435;-68
2022/07/22 05:52:31;;;;;;;18.40;13.60;;;19.50;96.90;;;;;;5091037;28;20434;-68
2022/07/22 05:55:00;;;;;;;14.73;13.17;;;19.60;96.50;;;;;;5091003;28;20439;-68
2022/07/22 05:57:30;;;;;;;15.87;13.50;;;19.70;96.70;;;;;;5091682;28;20496;-70
2022/07/22 05:59:57;;;;;;;15.03;13.40;;;19.80;96.70;;;;;;5090569;28;20431;-68
2022/07/22 06:02:24;;;;;;;14.13;12.63;;;19.90;96.50;;;;;;5091177;28;20869;-68
2022/07/22 06:04:54;;;;;;;16.50;13.67;;;20.00;96.20;;;;;;5091419;28;20444;-69
2022/07/22 06:07:21;;;;;;;13.77;12.33;;;20.10;96.20;;;;;;5090813;28;20432;-69
2022/07/22 06:09:49;;;;;;;15.80;13.37;;;20.20;96.00;;;;;;5091422;28;20432;-68
2022/07/22 06:12:16;;;;;;;13.77;12.40;;;20.30;96.10;;;;;;5091222;28;20463;-69
2022/07/22 06:14:43;;;;;;;16.07;13.93;;;20.40;95.60;;;;;;5091238;28;20754;-68
2022/07/22 06:17:11;;;;;;;16.80;14.57;;;20.50;94.60;;;;;;5085519;28;20447;-69
2022/07/22 06:19:38;;;;;;;16.90;12.40;;;20.60;94.70;;;;;;5086940;28;20507;-68
2022/07/22 06:22:07;;;;;;;20.57;14.30;;;20.70;94.70;;;;;;5089683;28;21002;-68
2022/07/22 06:24:34;;;;;;;14.87;13.40;;;20.80;94.70;;;;;;5089042;28;20483;-68
2022/07/22 06:27:02;;;;;;;15.57;13.97;;;20.80;94.50;;;;;;5089000;28;20432;-68
2022/07/22 06:29:29;;;;;;;15.87;12.30;;;20.90;94.60;;;;;;5089190;28;20451;-68
2022/07/22 06:31:59;;;;;;;16.20;14.47;;;21.00;94.50;;;;;;5089757;28;20906;-68
2022/07/22 06:34:26;;;;;;;14.40;12.90;;;21.10;94.60;;;;;;5088170;28;20469;-69
2022/07/22 06:36:53;;;;;;;16.57;14.80;;;21.30;94.70;;;;;;5088283;28;20848;-68
2022/07/22 06:39:21;;;;;;;19.87;13.97;;;21.40;94.40;;;;;;5087846;28;20520;-72
2022/07/22 06:41:49;;;;;;;13.50;12.10;;;21.50;94.30;;;;;;5088041;28;20503;-68
2022/07/22 06:44:16;;;;;;;14.47;13.03;;;21.50;94.10;;;;;;5088697;28;20446;-69
2022/07/22 06:46:45;;;;;;;15.47;13.80;;;21.70;94.10;;;;;;5089431;28;20494;-68
2022/07/22 06:49:12;;;;;;;15.70;13.50;;;21.70;94.40;;;;;;5089101;28;20450;-68
2022/07/22 06:51:39;;;;;;;15.60;12.97;;;21.90;94.40;;;;;;5088853;28;20447;-68
2022/07/22 06:54:07;;;;;;;14.10;12.40;;;22.00;94.40;;;;;;5088789;28;20442;-69
2022/07/22 06:56:36;;;;;;;14.27;12.17;;;22.20;94.30;;;;;;5088078;28;20439;-68
2022/07/22 06:59:03;;;;;;;14.03;12.37;;;22.30;94.20;;;;;;5088651;28;20446;-68
2022/07/22 07:01:30;;;;;;;15.03;12.97;;;22.50;93.90;;;;;;5089612;28;21264;-68
2022/07/22 07:03:57;;;;;;;12.70;11.50;;;22.70;93.80;;;;;;5090918;28;20538;-68
2022/07/22 07:06:24;;;;;;;14.47;12.37;;;22.80;93.30;;;;;;5091017;28;20496;-68
2022/07/22 07:08:51;;;;;;;15.23;12.90;;;22.90;93.20;;;;;;5091394;28;20479;-68
2022/07/22 07:11:18;;;;;;;14.63;13.27;;;23.10;93.00;;;;;;5089692;28;20446;-68
2022/07/22 07:13:46;;;;;;;14.10;12.70;;;23.20;92.70;;;;;;5091500;28;20857;-69
2022/07/22 07:16:14;;;;;;;13.70;12.30;;;23.30;92.30;;;;;;5091733;28;20477;-69
2022/07/22 07:18:40;;;;;;;14.60;13.03;;;23.50;92.30;;;;;;5091555;28;20435;-68
2022/07/22 07:21:07;;;;;;;12.63;11.13;;;23.60;91.80;;;;;;5091293;28;20463;-69
2022/07/22 07:23:34;;;;;;;15.60;13.20;;;23.70;91.50;;;;;;5091127;28;20566;-69
2022/07/22 07:26:01;;;;;;;11.80;10.70;;;23.80;91.10;;;;;;5091511;28;20443;-69
2022/07/22 07:28:28;;;;;;;14.30;12.80;;;23.90;91.10;;;;;;5091210;28;20458;-69
2022/07/22 07:30:57;;;;;;;11.50;10.40;;;23.90;90.50;;;;;;5091956;28;20530;-69
2022/07/22 07:33:24;;;;;;;12.17;10.93;;;24.10;90.30;;;;;;5094682;28;20980;-68
2022/07/22 07:35:50;;;;;;;13.87;11.87;;;24.20;89.60;;;;;;5095075;28;20533;-68
2022/07/22 07:38:18;;;;;;;12.97;11.30;;;24.40;89.90;;;;;;5094972;28;20470;-70
2022/07/22 07:40:45;;;;;;;14.00;12.60;;;24.50;89.80;;;;;;5094867;28;20940;-68
2022/07/22 07:43:12;;;;;;;14.40;12.30;;;24.60;86.50;;;;;;5094544;28;20521;-69
2022/07/22 07:45:42;;;;;;;11.77;10.67;;;24.70;86.80;;;;;;5095276;28;20517;-69
2022/07/22 07:48:11;;;;;;;11.20;10.10;;;24.90;87.10;;;;;;5095541;28;20522;-68
2022/07/22 07:50:38;;;;;;;16.17;11.20;;;25.00;86.70;;;;;;5094409;28;20439;-68
2022/07/22 07:53:05;;;;;;;14.90;12.33;;;25.10;87.10;;;;;;5094998;28;21004;-68
2022/07/22 07:55:35;;;;;;;16.37;12.77;;;25.30;87.30;;;;;;5094464;28;20443;-68
2022/07/22 07:58:03;;;;;;;13.63;11.60;;;25.40;86.10;;;;;;5093828;28;20447;-68
2022/07/22 08:00:32;;;;;;;12.13;10.93;;;25.50;84.70;;;;;;5093497;28;20496;-68
2022/07/22 08:02:59;;;;;;;13.80;10.63;;;25.60;84.40;;;;;;5094351;28;20826;-72
2022/07/22 08:05:28;;;;;;;17.43;14.10;;;25.70;84.10;;;;;;5094581;28;20514;-70
2022/07/22 08:07:55;;;;;;;13.20;11.20;;;25.80;82.70;;;;;;5094531;28;20485;-68
2022/07/22 08:10:22;;;;;;;16.33;10.20;;;25.90;82.50;;;;;;5094287;28;20522;-69
2022/07/22 08:12:50;;;;;;;12.80;11.20;;;26.10;82.40;;;;;;5094164;28;20457;-69
2022/07/22 08:15:17;;;;;;;14.47;11.03;;;26.20;80.50;;;;;;5094624;28;20522;-69
2022/07/22 08:17:44;;;;;;;11.93;10.63;;;26.40;78.90;;;;;;5094432;28;20514;-70
2022/07/22 08:20:12;;;;;;;12.27;11.13;;;26.40;78.20;;;;;;5094075;28;20438;-68
2022/07/22 08:22:40;;;;;;;15.23;11.57;;;26.50;78.10;;;;;;5094183;28;21035;-68
2022/07/22 08:25:08;;;;;;;12.70;11.50;;;26.70;78.40;;;;;;5094134;28;20526;-68
2022/07/22 08:27:35;;;;;;;13.13;11.87;;;26.80;78.00;;;;;;5094307;28;20450;-69
2022/07/22 08:30:04;;;;;;;15.20;12.37;;;26.90;75.90;;;;;;5093867;28;20453;-69
2022/07/22 08:32:31;;;;;;;12.23;9.93;;;27.00;76.60;;;;;;5093941;28;20444;-68
2022/07/22 08:34:58;;;;;;;13.10;9.87;;;27.10;76.40;;;;;;5094059;28;20539;-68
2022/07/22 08:37:25;;;;;;;12.70;11.40;;;27.20;75.80;;;;;;5093805;28;20824;-68
2022/07/22 08:39:53;;;;;;;14.13;12.60;;;27.40;75.70;;;;;;5093166;28;20443;-68
2022/07/22 08:42:21;;;;;;;13.50;10.73;;;27.50;76.10;;;;;;5092401;28;20530;-69
2022/07/22 08:44:49;;;;;;;12.60;11.40;;;27.60;70.90;;;;;;5090609;28;20475;-68
2022/07/22 08:47:20;;;;;;;10.67;9.67;;;27.60;72.60;;;;;;5093629;28;20522;-68
2022/07/22 08:49:48;;;;;;;12.13;10.63;;;27.80;71.60;;;;;;5093114;28;20873;-68
2022/07/22 08:52:15;;;;;;;11.07;10.03;;;27.90;72.30;;;;;;5093748;28;20488;-69
2022/07/22 08:54:42;;;;;;;9.73;8.73;;;28.00;71.00;;;;;;5092451;28;20442;-69
2022/07/22 08:57:10;;;;;;;9.40;8.50;;;28.20;65.40;;;;;;5093741;28;20526;-68
2022/07/22 08:59:50;;;;;;;11.53;9.20;;;28.20;61.90;;;;;;5093081;28;20857;-68
2022/07/22 09:02:20;;;;;;;8.30;7.50;;;28.30;62.10;;;;;;5093532;28;20501;-69
2022/07/22 09:04:56;;;;;;;10.07;8.97;;;28.30;60.00;;;;;;5093165;28;20496;-69
2022/07/22 09:07:30;;;;;;;9.63;8.50;;;28.50;59.40;;;;;;5093621;28;20522;-68
2022/07/22 09:09:59;;;;;;;15.63;8.90;;;28.50;59.20;;;;;;5091122;28;20524;-68
2022/07/22 09:12:29;;;;;;;11.07;8.50;;;28.60;59.70;;;;;;5091136;28;20913;-68
2022/07/22 09:14:58;;;;;;;10.23;9.10;;;28.70;58.70;;;;;;5091225;28;20835;-69
2022/07/22 09:17:26;;;;;;;11.23;8.60;;;28.80;59.80;;;;;;5090816;28;20455;-68
2022/07/22 09:19:54;;;;;;;9.40;7.57;;;28.90;58.20;;;;;;5092653;28;20526;-68
2022/07/22 09:22:37;;;;;;;9.50;7.50;;;28.90;55.10;;;;;;5092746;28;20521;-69
2022/07/22 09:25:20;;;;;;;11.07;8.17;;;29.00;56.90;;;;;;5091020;28;20973;-68
2022/07/22 09:27:49;;;;;;;9.00;8.10;;;29.20;57.40;;;;;;5091870;28;20778;-69
2022/07/22 09:30:19;;;;;;;11.83;8.90;;;29.20;57.30;;;;;;5092342;28;20892;-68
2022/07/22 09:32:47;;;;;;;13.87;9.30;;;29.30;54.40;;;;;;5092785;28;20442;-69
2022/07/22 09:35:15;;;;;;;7.93;7.13;;;29.40;55.70;;;;;;5092935;28;20965;-69
2022/07/22 09:37:50;;;;;;;8.57;7.77;;;29.40;55.30;;;;;;5092971;28;20436;-68
2022/07/22 09:40:19;;;;;;;9.57;8.23;;;29.50;53.40;;;;;;5092368;28;20473;-69
2022/07/22 09:42:50;;;;;;;12.10;8.43;;;29.60;54.30;;;;;;5092567;28;20559;-69
2022/07/22 09:45:23;;;;;;;10.43;9.10;;;29.70;52.20;;;;;;5092690;28;20492;-69
2022/07/22 09:47:51;;;;;;;10.80;8.50;;;29.80;52.20;;;;;;5092419;28;20526;-69
2022/07/22 09:50:21;;;;;;;10.90;8.43;;;29.90;51.40;;;;;;5092030;28;20522;-69
2022/07/22 09:52:49;;;;;;;9.40;7.90;;;29.90;53.20;;;;;;5092227;28;20467;-70
2022/07/22 09:55:17;;;;;;;10.77;8.03;;;30.00;53.80;;;;;;5091549;28;20439;-69
2022/07/22 09:57:46;;;;;;;8.77;7.87;;;30.10;52.90;;;;;;5092095;28;20500;-69
2022/07/22 10:00:17;;;;;;;8.70;7.90;;;30.10;52.20;;;;;;5092298;28;20518;-69
2022/07/22 10:02:48;;;;;;;9.50;8.60;;;30.20;52.10;;;;;;5092614;28;20524;-70
2022/07/22 10:05:17;;;;;;;10.13;8.00;;;30.20;50.90;;;;;;5092290;28;20474;-69
2022/07/22 10:07:45;;;;;;;9.90;7.70;;;30.20;50.50;;;;;;5092259;28;20546;-71
2022/07/22 10:10:15;;;;;;;9.33;8.30;;;30.30;51.70;;;;;;5091787;28;20470;-68
2022/07/22 10:12:42;;;;;;;11.40;10.07;;;30.30;51.50;;;;;;5091977;28;20529;-71
2022/07/22 10:15:11;;;;;;;9.23;7.73;;;30.40;51.10;;;;;;5092368;28;20535;-69
2022/07/22 10:17:42;;;;;;;8.90;8.00;;;30.50;52.20;;;;;;5091774;28;20446;-69
2022/07/22 10:20:11;;;;;;;9.67;8.70;;;30.60;50.10;;;;;;5091869;28;20431;-69
2022/07/22 10:22:54;;;;;;;10.50;7.57;;;30.70;50.20;;;;;;5090995;28;20482;-68
2022/07/22 10:25:24;;;;;;;9.43;8.43;;;30.80;50.80;;;;;;5089208;28;20991;-70
2022/07/22 10:27:53;;;;;;;7.97;7.27;;;30.80;49.90;;;;;;5089811;28;20419;-70
2022/07/22 10:30:22;;;;;;;12.13;8.07;;;30.80;48.10;;;;;;5091413;28;20526;-69
2022/07/22 10:33:10;;;;;;;9.20;8.10;;;30.80;49.40;;;;;;5091885;28;20439;-68
2022/07/22 10:35:38;;;;;;;9.57;8.67;;;30.80;50.00;;;;;;5091984;28;20446;-69
2022/07/22 10:38:08;;;;;;;10.57;9.47;;;30.90;50.50;;;;;;5091706;28;20534;-68
2022/07/22 10:40:50;;;;;;;12.00;10.13;;;31.00;49.50;;;;;;5091035;28;20963;-69
2022/07/22 10:43:19;;;;;;;9.03;8.13;;;31.00;50.00;;;;;;5088561;28;20941;-69
2022/07/22 10:45:48;;;;;;;12.47;9.63;;;31.10;51.40;;;;;;5088232;28;20441;-68
2022/07/22 10:48:20;;;;;;;9.70;8.70;;;31.30;51.20;;;;;;5088364;28;20482;-68
2022/07/22 10:50:50;;;;;;;9.83;8.83;;;31.30;51.20;;;;;;5088001;28;20446;-69
2022/07/22 10:53:21;;;;;;;9.67;8.87;;;31.40;52.20;;;;;;5087817;28;20496;-70
2022/07/22 10:56:23;;;;;;;12.40;9.63;;;31.40;49.40;;;;;;5088539;28;20526;-69
2022/07/22 10:58:55;;;;;;;10.40;9.23;;;31.40;46.80;;;;;;5017644;28;20473;-69
2022/07/22 11:01:25;;;;;;;12.77;8.93;;;31.40;48.30;;;;;;5080815;28;20435;-69
2022/07/22 11:03:54;;;;;;;9.90;8.90;;;31.50;48.30;;;;;;5091802;28;20505;-69
2022/07/22 11:06:27;;;;;;;9.40;8.60;;;31.60;46.40;;;;;;5094264;28;20797;-67
2022/07/22 11:08:56;;;;;;;10.20;9.30;;;31.70;48.00;;;;;;5097085;28;20830;-67
2022/07/22 11:11:34;;;;;;;9.53;8.73;;;31.70;50.70;;;;;;5096559;28;20431;-66
2022/07/22 11:14:02;;;;;;;10.87;9.87;;;31.80;50.50;;;;;;5096233;28;20443;-68
2022/07/22 11:16:29;;;;;;;9.67;8.67;;;31.90;49.10;;;;;;5096155;28;20492;-67
2022/07/22 11:19:01;;;;;;;9.97;8.97;;;32.00;49.10;;;;;;5096594;28;20525;-67
2022/07/22 11:21:30;;;;;;;8.63;7.73;;;32.10;48.90;;;;;;5096572;28;20463;-68
2022/07/22 11:23:59;;;;;;;9.33;8.43;;;32.20;49.40;;;;;;5096211;28;20884;-67
2022/07/22 11:26:32;;;;;;;10.30;9.30;;;32.30;49.60;;;;;;5096231;28;20547;-67
2022/07/22 11:29:00;;;;;;;9.77;8.87;;;32.30;48.90;;;;;;5096284;28;20482;-67
2022/07/22 11:31:27;;;;;;;9.40;8.50;;;32.50;48.80;;;;;;5096228;28;20521;-67
2022/07/22 11:34:07;;;;;;;9.47;8.53;;;32.50;48.50;;;;;;5096440;28;20522;-67
2022/07/22 11:36:36;;;;;;;8.90;7.70;;;32.50;47.40;;;;;;5096404;28;20936;-67
2022/07/22 11:39:03;;;;;;;10.23;9.00;;;32.60;49.50;;;;;;5096200;28;20871;-67
2022/07/22 11:41:32;;;;;;;9.73;8.83;;;32.60;47.20;;;;;;5096195;28;20435;-67
2022/07/22 11:44:00;;;;;;;10.27;9.30;;;32.60;46.20;;;;;;5095831;28;20518;-67
2022/07/22 11:46:35;;;;;;;9.53;8.63;;;32.60;47.30;;;;;;5096194;28;20442;-66
2022/07/22 11:49:02;;;;;;;9.70;8.30;;;32.70;48.60;;;;;;5096115;28;20438;-67
2022/07/22 11:51:32;;;;;;;10.17;8.30;;;32.70;47.70;;;;;;5095972;28;20514;-67
2022/07/22 11:54:00;;;;;;;11.80;9.07;;;32.80;48.40;;;;;;5095738;28;20466;-67
2022/07/22 11:56:27;;;;;;;9.00;8.20;;;32.80;47.90;;;;;;5092329;28;20443;-67
2022/07/22 11:58:56;;;;;;;9.53;8.63;;;33.00;46.90;;;;;;5094433;28;20527;-67
2022/07/22 12:01:25;;;;;;;9.50;8.60;;;32.90;44.50;;;;;;5094574;28;20512;-67
2022/07/22 12:03:54;;;;;;;10.90;9.50;;;32.80;45.00;;;;;;5091227;28;20482;-67
2022/07/22 12:06:23;;;;;;;10.67;8.97;;;32.80;45.30;;;;;;5091366;28;20470;-67
2022/07/22 12:09:03;;;;;;;9.50;8.10;;;32.80;45.90;;;;;;5094275;28;20445;-69
2022/07/22 12:11:31;;;;;;;9.40;8.60;;;32.90;46.30;;;;;;5093960;28;20861;-67
2022/07/22 12:14:06;;;;;;;9.47;8.57;;;32.90;47.10;;;;;;5094496;28;20522;-67
2022/07/22 12:16:35;;;;;;;11.20;8.60;;;32.90;44.90;;;;;;5094255;28;21009;-66
2022/07/22 12:19:07;;;;;;;8.93;8.03;;;32.90;44.00;;;;;;5093217;28;20479;-67
2022/07/22 12:21:36;;;;;;;9.63;8.60;;;32.90;45.10;;;;;;5093702;28;20483;-67
2022/07/22 12:24:07;;;;;;;11.10;9.33;;;32.90;44.90;;;;;;5093658;28;21032;-67
2022/07/22 12:26:48;;;;;;;9.63;8.60;;;32.80;44.60;;;;;;5093584;28;20522;-67
2022/07/22 12:29:26;;;;;;;8.93;8.07;;;32.90;45.30;;;;;;5093794;28;20530;-67
2022/07/22 12:31:58;;;;;;;9.80;8.90;;;33.00;46.30;;;;;;5093841;28;20489;-67
2022/07/22 12:34:33;;;;;;;9.97;9.00;;;32.90;43.80;;;;;;5094014;28;20482;-67
2022/07/22 12:37:02;;;;;;;11.30;8.27;;;32.90;44.30;;;;;;5091930;28;20475;-67
2022/07/22 12:39:35;;;;;;;8.50;7.47;;;32.80;44.40;;;;;;5093595;28;20431;-67
2022/07/22 12:42:06;;;;;;;9.83;8.43;;;32.80;43.90;;;;;;5091973;28;20493;-67
2022/07/22 12:44:33;;;;;;;11.40;8.90;;;32.80;43.80;;;;;;5093281;28;20589;-66
2022/07/22 12:47:05;;;;;;;9.30;8.50;;;32.80;43.50;;;;;;5094076;28;20781;-66
2022/07/22 12:49:34;;;;;;;9.10;8.30;;;32.70;43.50;;;;;;5091626;28;20504;-67
2022/07/22 12:52:09;;;;;;;11.43;8.43;;;32.80;44.90;;;;;;5093235;28;20427;-66
2022/07/22 12:54:42;;;;;;;10.20;8.90;;;32.80;44.10;;;;;;5092140;28;20438;-67
2022/07/22 12:57:14;;;;;;;8.93;7.97;;;32.90;46.20;;;;;;5094636;28;20845;-66
2022/07/22 12:59:51;;;;;;;9.90;8.93;;;32.90;44.50;;;;;;5094649;28;20933;-67
2022/07/22 13:02:20;;;;;;;10.00;8.80;;;32.90;44.70;;;;;;5094844;28;20909;-67
2022/07/22 13:04:47;;;;;;;9.87;8.97;;;32.90;44.50;;;;;;5094051;28;20518;-67
2022/07/22 13:07:14;;;;;;;11.50;8.23;;;32.80;45.10;;;;;;5094572;28;20488;-67
2022/07/22 13:09:42;;;;;;;15.63;9.73;;;32.90;44.60;;;;;;5094641;28;20435;-67
2022/07/22 13:12:09;;;;;;;9.47;8.50;;;32.80;44.10;;;;;;5094507;28;20467;-67
2022/07/22 13:14:36;;;;;;;8.90;7.93;;;32.80;43.80;;;;;;5093988;28;20439;-66
2022/07/22 13:17:04;;;;;;;9.37;8.47;;;32.80;43.30;;;;;;5094450;28;20435;-67
2022/07/22 13:19:32;;;;;;;10.00;8.90;;;32.80;43.20;;;;;;5094180;28;20438;-67
2022/07/22 13:22:02;;;;;;;10.00;8.83;;;32.80;45.30;;;;;;5094180;28;20933;-67
2022/07/22 13:24:30;;;;;;;10.40;9.30;;;32.80;44.10;;;;;;5093525;28;20559;-67
2022/07/22 13:26:59;;;;;;;9.83;8.60;;;32.80;44.40;;;;;;5093982;28;20518;-67
2022/07/22 13:29:26;;;;;;;9.47;8.37;;;32.80;43.90;;;;;;5093721;28;20439;-66
2022/07/22 13:31:55;;;;;;;11.07;9.97;;;32.90;43.90;;;;;;5093919;28;20447;-67
2022/07/22 13:34:24;;;;;;;10.70;9.80;;;32.90;43.70;;;;;;5093836;28;20941;-67
2022/07/22 13:36:52;;;;;;;10.30;9.30;;;32.80;43.30;;;;;;5093898;28;20525;-66
2022/07/22 13:39:22;;;;;;;9.67;8.77;;;32.80;43.30;;;;;;5093783;28;20466;-67